sensor_id;sensor_type;location;lat;lon;timestamp;P1;durP1;ratioP1;P2;durP2;ratioP2
50543;SDS011;41176;44.032;20.900;2023-01-20T00:01:08;0.40;;;0.28;;
50543;SDS011;41176;44.032;20.900;2023-01-20T00:03:36;0.50;;;0.35;;
50543;SDS011;41176;44.032;20.900;2023-01-20T00:06:02;0.40;;;0.30;;
50543;SDS011;41176;44.032;20.900;2023-01-20T00:08:28;0.30;;;0.20;;
50543;SDS011;41176;44.032;20.900;2023-01-20T00:10:54;1.30;;;0.80;;
50543;SDS011;41176;44.032;20.900;2023-01-20T00:13:19;0.70;;;0.40;;
50543;SDS011;41176;44.032;20.900;2023-01-20T00:15:45;0.52;;;0.47;;
50543;SDS011;41176;44.032;20.900;2023-01-20T00:18:12;0.22;;;0.13;;
50543;SDS011;41176;44.032;20.900;2023-01-20T00:20:38;0.70;;;0.52;;
50543;SDS011;41176;44.032;20.900;2023-01-20T00:23:04;0.85;;;0.63;;
50543;SDS011;41176;44.032;20.900;2023-01-20T00:25:29;0.50;;;0.28;;
50543;SDS011;41176;44.032;20.900;2023-01-20T00:27:55;0.50;;;0.28;;
50543;SDS011;41176;44.032;20.900;2023-01-20T00:30:21;0.57;;;0.40;;
50543;SDS011;41176;44.032;20.900;2023-01-20T00:32:47;0.52;;;0.35;;
50543;SDS011;41176;44.032;20.900;2023-01-20T00:35:12;0.68;;;0.60;;
50543;SDS011;41176;44.032;20.900;2023-01-20T00:37:38;0.38;;;0.30;;
50543;SDS011;41176;44.032;20.900;2023-01-20T00:40:04;0.82;;;0.52;;
50543;SDS011;41176;44.032;20.900;2023-01-20T00:42:31;0.43;;;0.35;;
50543;SDS011;41176;44.032;20.900;2023-01-20T00:44:57;0.85;;;0.65;;
50543;SDS011;41176;44.032;20.900;2023-01-20T00:47:22;0.70;;;0.38;;
50543;SDS011;41176;44.032;20.900;2023-01-20T00:49:49;0.63;;;0.47;;
50543;SDS011;41176;44.032;20.900;2023-01-20T00:52:15;0.90;;;0.82;;
50543;SDS011;41176;44.032;20.900;2023-01-20T00:54:42;0.70;;;0.55;;
50543;SDS011;41176;44.032;20.900;2023-01-20T00:57:09;0.50;;;0.43;;
50543;SDS011;41176;44.032;20.900;2023-01-20T00:59:35;0.40;;;0.30;;
50543;SDS011;41176;44.032;20.900;2023-01-20T01:02:01;0.90;;;0.75;;
50543;SDS011;41176;44.032;20.900;2023-01-20T01:04:26;1.30;;;0.88;;
50543;SDS011;41176;44.032;20.900;2023-01-20T01:06:52;2.47;;;1.05;;
50543;SDS011;41176;44.032;20.900;2023-01-20T01:09:18;0.68;;;0.32;;
50543;SDS011;41176;44.032;20.900;2023-01-20T01:11:45;0.68;;;0.47;;
50543;SDS011;41176;44.032;20.900;2023-01-20T01:14:12;1.75;;;0.68;;
50543;SDS011;41176;44.032;20.900;2023-01-20T01:16:38;0.22;;;0.20;;
50543;SDS011;41176;44.032;20.900;2023-01-20T01:19:03;0.25;;;0.25;;
50543;SDS011;41176;44.032;20.900;2023-01-20T01:21:29;1.02;;;0.63;;
50543;SDS011;41176;44.032;20.900;2023-01-20T01:23:55;1.08;;;0.45;;
50543;SDS011;41176;44.032;20.900;2023-01-20T01:26:20;0.32;;;0.20;;
50543;SDS011;41176;44.032;20.900;2023-01-20T01:28:46;2.20;;;0.68;;
50543;SDS011;41176;44.032;20.900;2023-01-20T01:31:13;2.33;;;1.23;;
50543;SDS011;41176;44.032;20.900;2023-01-20T01:33:40;0.43;;;0.30;;
50543;SDS011;41176;44.032;20.900;2023-01-20T01:36:06;0.20;;;0.10;;
50543;SDS011;41176;44.032;20.900;2023-01-20T01:38:33;0.77;;;0.32;;
50543;SDS011;41176;44.032;20.900;2023-01-20T01:40:59;1.33;;;0.60;;
50543;SDS011;41176;44.032;20.900;2023-01-20T01:43:27;1.33;;;0.80;;
50543;SDS011;41176;44.032;20.900;2023-01-20T01:46:00;0.68;;;0.45;;
50543;SDS011;41176;44.032;20.900;2023-01-20T01:53:46;1.65;;;0.60;;
50543;SDS011;41176;44.032;20.900;2023-01-20T01:56:21;0.47;;;0.30;;
50543;SDS011;41176;44.032;20.900;2023-01-20T01:58:49;1.73;;;0.77;;
50543;SDS011;41176;44.032;20.900;2023-01-20T02:01:18;1.45;;;0.68;;
50543;SDS011;41176;44.032;20.900;2023-01-20T02:06:18;0.35;;;0.32;;
50543;SDS011;41176;44.032;20.900;2023-01-20T02:08:46;0.40;;;0.30;;
50543;SDS011;41176;44.032;20.900;2023-01-20T02:11:12;1.63;;;1.13;;
50543;SDS011;41176;44.032;20.900;2023-01-20T02:13:38;1.25;;;0.82;;
50543;SDS011;41176;44.032;20.900;2023-01-20T02:26:58;0.28;;;0.25;;
50543;SDS011;41176;44.032;20.900;2023-01-20T02:35:46;1.95;;;0.43;;
50543;SDS011;41176;44.032;20.900;2023-01-20T02:41:34;0.10;;;0.10;;
50543;SDS011;41176;44.032;20.900;2023-01-20T02:52:30;0.30;;;0.20;;
50543;SDS011;41176;44.032;20.900;2023-01-20T02:55:01;0.93;;;0.45;;
50543;SDS011;41176;44.032;20.900;2023-01-20T02:57:31;0.28;;;0.10;;
50543;SDS011;41176;44.032;20.900;2023-01-20T03:02:57;0.80;;;0.40;;
50543;SDS011;41176;44.032;20.900;2023-01-20T03:05:28;0.20;;;0.20;;
50543;SDS011;41176;44.032;20.900;2023-01-20T03:07:57;0.30;;;0.20;;
50543;SDS011;41176;44.032;20.900;2023-01-20T03:10:26;0.35;;;0.30;;
50543;SDS011;41176;44.032;20.900;2023-01-20T03:12:58;0.10;;;0.10;;
50543;SDS011;41176;44.032;20.900;2023-01-20T03:18:01;0.30;;;0.22;;
50543;SDS011;41176;44.032;20.900;2023-01-20T03:20:27;0.20;;;0.10;;
50543;SDS011;41176;44.032;20.900;2023-01-20T03:22:52;0.10;;;0.10;;
50543;SDS011;41176;44.032;20.900;2023-01-20T03:25:18;0.20;;;0.13;;
50543;SDS011;41176;44.032;20.900;2023-01-20T03:27:44;0.80;;;0.68;;
50543;SDS011;41176;44.032;20.900;2023-01-20T03:30:11;0.32;;;0.30;;
50543;SDS011;41176;44.032;20.900;2023-01-20T03:32:43;0.13;;;0.10;;
50543;SDS011;41176;44.032;20.900;2023-01-20T03:35:12;2.75;;;0.40;;
50543;SDS011;41176;44.032;20.900;2023-01-20T03:37:40;0.20;;;0.17;;
50543;SDS011;41176;44.032;20.900;2023-01-20T03:40:07;0.40;;;0.20;;
50543;SDS011;41176;44.032;20.900;2023-01-20T03:42:34;0.20;;;0.10;;
50543;SDS011;41176;44.032;20.900;2023-01-20T03:45:23;0.47;;;0.47;;
50543;SDS011;41176;44.032;20.900;2023-01-20T03:58:31;0.10;;;0.10;;
50543;SDS011;41176;44.032;20.900;2023-01-20T04:01:00;0.20;;;0.10;;
50543;SDS011;41176;44.032;20.900;2023-01-20T04:03:32;0.30;;;0.30;;
50543;SDS011;41176;44.032;20.900;2023-01-20T04:06:01;0.20;;;0.20;;
50543;SDS011;41176;44.032;20.900;2023-01-20T04:08:30;0.50;;;0.30;;
50543;SDS011;41176;44.032;20.900;2023-01-20T04:10:59;0.55;;;0.43;;
50543;SDS011;41176;44.032;20.900;2023-01-20T04:13:28;3.80;;;1.33;;
50543;SDS011;41176;44.032;20.900;2023-01-20T04:15:54;0.30;;;0.20;;
50543;SDS011;41176;44.032;20.900;2023-01-20T04:18:21;4.40;;;0.93;;
50543;SDS011;41176;44.032;20.900;2023-01-20T04:20:50;0.40;;;0.35;;
50543;SDS011;41176;44.032;20.900;2023-01-20T04:25:53;0.38;;;0.28;;
50543;SDS011;41176;44.032;20.900;2023-01-20T04:28:19;0.55;;;0.38;;
50543;SDS011;41176;44.032;20.900;2023-01-20T04:30:44;0.30;;;0.30;;
50543;SDS011;41176;44.032;20.900;2023-01-20T04:33:10;0.22;;;0.15;;
50543;SDS011;41176;44.032;20.900;2023-01-20T04:35:36;0.55;;;0.25;;
50543;SDS011;41176;44.032;20.900;2023-01-20T04:38:01;0.45;;;0.43;;
50543;SDS011;41176;44.032;20.900;2023-01-20T04:40:27;0.40;;;0.35;;
50543;SDS011;41176;44.032;20.900;2023-01-20T04:42:53;1.23;;;0.57;;
50543;SDS011;41176;44.032;20.900;2023-01-20T04:45:19;0.35;;;0.20;;
50543;SDS011;41176;44.032;20.900;2023-01-20T04:47:44;1.27;;;0.90;;
50543;SDS011;41176;44.032;20.900;2023-01-20T04:50:10;3.17;;;1.88;;
50543;SDS011;41176;44.032;20.900;2023-01-20T04:52:37;1.08;;;0.80;;
50543;SDS011;41176;44.032;20.900;2023-01-20T04:55:03;0.98;;;0.45;;
50543;SDS011;41176;44.032;20.900;2023-01-20T04:57:29;1.90;;;1.10;;
50543;SDS011;41176;44.032;20.900;2023-01-20T04:59:55;0.20;;;0.13;;
50543;SDS011;41176;44.032;20.900;2023-01-20T05:02:20;6.35;;;1.50;;
50543;SDS011;41176;44.032;20.900;2023-01-20T05:04:46;3.38;;;1.38;;
50543;SDS011;41176;44.032;20.900;2023-01-20T05:07:12;1.70;;;1.20;;
50543;SDS011;41176;44.032;20.900;2023-01-20T05:09:37;0.95;;;0.80;;
50543;SDS011;41176;44.032;20.900;2023-01-20T05:12:03;1.25;;;1.15;;
50543;SDS011;41176;44.032;20.900;2023-01-20T05:14:29;0.57;;;0.55;;
50543;SDS011;41176;44.032;20.900;2023-01-20T05:16:55;0.40;;;0.28;;
50543;SDS011;41176;44.032;20.900;2023-01-20T05:19:20;1.02;;;0.85;;
50543;SDS011;41176;44.032;20.900;2023-01-20T05:21:46;0.32;;;0.25;;
50543;SDS011;41176;44.032;20.900;2023-01-20T05:24:12;1.55;;;0.63;;
50543;SDS011;41176;44.032;20.900;2023-01-20T05:26:37;0.40;;;0.40;;
50543;SDS011;41176;44.032;20.900;2023-01-20T05:29:03;1.13;;;0.65;;
50543;SDS011;41176;44.032;20.900;2023-01-20T05:31:29;0.22;;;0.22;;
50543;SDS011;41176;44.032;20.900;2023-01-20T05:33:55;0.35;;;0.30;;
50543;SDS011;41176;44.032;20.900;2023-01-20T05:36:21;2.88;;;1.58;;
50543;SDS011;41176;44.032;20.900;2023-01-20T05:38:46;0.38;;;0.28;;
50543;SDS011;41176;44.032;20.900;2023-01-20T05:41:12;2.70;;;1.52;;
50543;SDS011;41176;44.032;20.900;2023-01-20T05:43:38;1.25;;;0.93;;
50543;SDS011;41176;44.032;20.900;2023-01-20T05:46:04;0.75;;;0.65;;
50543;SDS011;41176;44.032;20.900;2023-01-20T05:48:30;1.10;;;0.63;;
50543;SDS011;41176;44.032;20.900;2023-01-20T05:50:56;0.63;;;0.52;;
50543;SDS011;41176;44.032;20.900;2023-01-20T05:53:22;0.30;;;0.20;;
50543;SDS011;41176;44.032;20.900;2023-01-20T05:55:47;0.10;;;0.10;;
50543;SDS011;41176;44.032;20.900;2023-01-20T05:58:13;0.10;;;0.10;;
50543;SDS011;41176;44.032;20.900;2023-01-20T06:00:39;0.10;;;0.10;;
50543;SDS011;41176;44.032;20.900;2023-01-20T06:03:05;0.10;;;0.00;;
50543;SDS011;41176;44.032;20.900;2023-01-20T06:05:30;0.10;;;0.10;;
50543;SDS011;41176;44.032;20.900;2023-01-20T06:07:57;0.40;;;0.20;;
50543;SDS011;41176;44.032;20.900;2023-01-20T06:10:23;0.25;;;0.17;;
50543;SDS011;41176;44.032;20.900;2023-01-20T06:12:51;0.10;;;0.00;;
50543;SDS011;41176;44.032;20.900;2023-01-20T06:15:21;0.55;;;0.35;;
50543;SDS011;41176;44.032;20.900;2023-01-20T06:17:50;1.35;;;0.47;;
50543;SDS011;41176;44.032;20.900;2023-01-20T06:20:17;0.30;;;0.20;;
50543;SDS011;41176;44.032;20.900;2023-01-20T06:22:43;0.73;;;0.55;;
50543;SDS011;41176;44.032;20.900;2023-01-20T06:25:09;0.20;;;0.10;;
50543;SDS011;41176;44.032;20.900;2023-01-20T06:27:34;0.25;;;0.15;;
50543;SDS011;41176;44.032;20.900;2023-01-20T06:30:01;1.50;;;0.75;;
50543;SDS011;41176;44.032;20.900;2023-01-20T06:32:28;0.10;;;0.10;;
50543;SDS011;41176;44.032;20.900;2023-01-20T06:34:54;0.55;;;0.35;;
50543;SDS011;41176;44.032;20.900;2023-01-20T06:37:20;1.67;;;0.90;;
50543;SDS011;41176;44.032;20.900;2023-01-20T06:39:45;1.92;;;0.93;;
50543;SDS011;41176;44.032;20.900;2023-01-20T06:42:11;1.55;;;1.17;;
50543;SDS011;41176;44.032;20.900;2023-01-20T06:44:38;0.98;;;0.52;;
50543;SDS011;41176;44.032;20.900;2023-01-20T06:47:04;0.85;;;0.47;;
50543;SDS011;41176;44.032;20.900;2023-01-20T06:49:29;1.35;;;0.73;;
50543;SDS011;41176;44.032;20.900;2023-01-20T06:51:57;2.90;;;2.60;;
50543;SDS011;41176;44.032;20.900;2023-01-20T06:54:23;0.43;;;0.38;;
50543;SDS011;41176;44.032;20.900;2023-01-20T06:56:49;0.40;;;0.30;;
50543;SDS011;41176;44.032;20.900;2023-01-20T06:59:15;0.88;;;0.55;;
50543;SDS011;41176;44.032;20.900;2023-01-20T07:01:40;0.32;;;0.22;;
50543;SDS011;41176;44.032;20.900;2023-01-20T07:04:06;0.70;;;0.70;;
50543;SDS011;41176;44.032;20.900;2023-01-20T07:06:37;4.68;;;0.70;;
50543;SDS011;41176;44.032;20.900;2023-01-20T07:09:04;0.40;;;0.30;;
50543;SDS011;41176;44.032;20.900;2023-01-20T07:11:34;1.75;;;0.40;;
50543;SDS011;41176;44.032;20.900;2023-01-20T07:14:00;2.55;;;0.82;;
50543;SDS011;41176;44.032;20.900;2023-01-20T07:16:27;1.25;;;1.08;;
50543;SDS011;41176;44.032;20.900;2023-01-20T07:18:54;1.80;;;1.60;;
50543;SDS011;41176;44.032;20.900;2023-01-20T07:21:19;1.50;;;1.40;;
50543;SDS011;41176;44.032;20.900;2023-01-20T07:23:46;1.58;;;1.00;;
50543;SDS011;41176;44.032;20.900;2023-01-20T07:26:13;1.35;;;1.25;;
50543;SDS011;41176;44.032;20.900;2023-01-20T07:28:41;1.88;;;1.25;;
50543;SDS011;41176;44.032;20.900;2023-01-20T07:31:08;3.85;;;2.03;;
50543;SDS011;41176;44.032;20.900;2023-01-20T07:33:36;1.63;;;1.33;;
50543;SDS011;41176;44.032;20.900;2023-01-20T07:36:02;1.38;;;0.82;;
50543;SDS011;41176;44.032;20.900;2023-01-20T07:38:29;1.60;;;1.50;;
50543;SDS011;41176;44.032;20.900;2023-01-20T07:40:56;2.80;;;2.00;;
50543;SDS011;41176;44.032;20.900;2023-01-20T07:43:22;2.60;;;2.05;;
50543;SDS011;41176;44.032;20.900;2023-01-20T07:45:48;3.80;;;1.73;;
50543;SDS011;41176;44.032;20.900;2023-01-20T07:48:14;2.42;;;1.33;;
50543;SDS011;41176;44.032;20.900;2023-01-20T07:50:39;4.38;;;2.70;;
50543;SDS011;41176;44.032;20.900;2023-01-20T07:53:05;3.60;;;2.20;;
50543;SDS011;41176;44.032;20.900;2023-01-20T07:55:31;3.40;;;2.40;;
50543;SDS011;41176;44.032;20.900;2023-01-20T07:57:57;2.22;;;1.60;;
50543;SDS011;41176;44.032;20.900;2023-01-20T08:00:23;7.93;;;3.90;;
50543;SDS011;41176;44.032;20.900;2023-01-20T08:02:55;3.45;;;3.13;;
50543;SDS011;41176;44.032;20.900;2023-01-20T08:06:24;1.80;;;1.43;;
50543;SDS011;41176;44.032;20.900;2023-01-20T08:09:12;2.80;;;2.60;;
50543;SDS011;41176;44.032;20.900;2023-01-20T08:11:38;3.13;;;2.00;;
50543;SDS011;41176;44.032;20.900;2023-01-20T08:14:04;5.20;;;2.88;;
50543;SDS011;41176;44.032;20.900;2023-01-20T08:16:35;3.88;;;2.75;;
50543;SDS011;41176;44.032;20.900;2023-01-20T08:22:50;1.20;;;1.10;;
50543;SDS011;41176;44.032;20.900;2023-01-20T08:25:15;2.28;;;1.88;;
50543;SDS011;41176;44.032;20.900;2023-01-20T08:27:41;2.75;;;1.60;;
50543;SDS011;41176;44.032;20.900;2023-01-20T08:30:07;1.23;;;0.98;;
50543;SDS011;41176;44.032;20.900;2023-01-20T08:32:33;2.28;;;1.50;;
50543;SDS011;41176;44.032;20.900;2023-01-20T08:34:59;0.82;;;0.77;;
50543;SDS011;41176;44.032;20.900;2023-01-20T08:37:24;1.73;;;1.30;;
50543;SDS011;41176;44.032;20.900;2023-01-20T08:39:50;3.13;;;0.77;;
50543;SDS011;41176;44.032;20.900;2023-01-20T08:42:16;4.28;;;2.90;;
50543;SDS011;41176;44.032;20.900;2023-01-20T08:44:41;5.25;;;2.28;;
50543;SDS011;41176;44.032;20.900;2023-01-20T08:47:07;0.63;;;0.40;;
50543;SDS011;41176;44.032;20.900;2023-01-20T08:49:33;1.05;;;0.77;;
50543;SDS011;41176;44.032;20.900;2023-01-20T08:51:59;2.70;;;1.40;;
50543;SDS011;41176;44.032;20.900;2023-01-20T08:54:24;4.68;;;1.92;;
50543;SDS011;41176;44.032;20.900;2023-01-20T08:56:53;1.40;;;1.30;;
50543;SDS011;41176;44.032;20.900;2023-01-20T08:59:18;2.25;;;1.73;;
50543;SDS011;41176;44.032;20.900;2023-01-20T09:01:44;2.92;;;2.15;;
50543;SDS011;41176;44.032;20.900;2023-01-20T09:04:10;2.83;;;2.40;;
50543;SDS011;41176;44.032;20.900;2023-01-20T09:06:54;3.05;;;1.65;;
50543;SDS011;41176;44.032;20.900;2023-01-20T09:09:20;1.35;;;0.95;;
50543;SDS011;41176;44.032;20.900;2023-01-20T09:11:47;3.78;;;1.80;;
50543;SDS011;41176;44.032;20.900;2023-01-20T09:14:17;2.92;;;2.40;;
50543;SDS011;41176;44.032;20.900;2023-01-20T09:16:43;4.53;;;2.00;;
50543;SDS011;41176;44.032;20.900;2023-01-20T09:19:09;1.15;;;0.85;;
50543;SDS011;41176;44.032;20.900;2023-01-20T09:21:35;1.98;;;1.63;;
50543;SDS011;41176;44.032;20.900;2023-01-20T09:24:00;3.05;;;1.40;;
50543;SDS011;41176;44.032;20.900;2023-01-20T09:26:26;1.10;;;0.77;;
50543;SDS011;41176;44.032;20.900;2023-01-20T09:28:52;2.13;;;1.48;;
50543;SDS011;41176;44.032;20.900;2023-01-20T09:31:17;2.28;;;1.83;;
50543;SDS011;41176;44.032;20.900;2023-01-20T09:33:43;0.57;;;0.47;;
50543;SDS011;41176;44.032;20.900;2023-01-20T09:36:09;2.38;;;1.33;;
50543;SDS011;41176;44.032;20.900;2023-01-20T09:38:35;2.88;;;2.65;;
50543;SDS011;41176;44.032;20.900;2023-01-20T09:41:27;0.80;;;0.80;;
50543;SDS011;41176;44.032;20.900;2023-01-20T09:44:32;1.75;;;1.63;;
50543;SDS011;41176;44.032;20.900;2023-01-20T09:50:27;2.33;;;1.67;;
50543;SDS011;41176;44.032;20.900;2023-01-20T09:56:20;2.25;;;2.05;;
50543;SDS011;41176;44.032;20.900;2023-01-20T09:58:54;4.72;;;3.22;;
50543;SDS011;41176;44.032;20.900;2023-01-20T10:04:02;2.78;;;1.88;;
50543;SDS011;41176;44.032;20.900;2023-01-20T10:09:02;4.28;;;2.42;;
50543;SDS011;41176;44.032;20.900;2023-01-20T10:11:40;2.78;;;2.08;;
50543;SDS011;41176;44.032;20.900;2023-01-20T10:14:21;3.08;;;2.80;;
50543;SDS011;41176;44.032;20.900;2023-01-20T10:16:52;4.50;;;3.97;;
50543;SDS011;41176;44.032;20.900;2023-01-20T10:19:32;2.83;;;2.35;;
50543;SDS011;41176;44.032;20.900;2023-01-20T10:25:19;7.30;;;5.28;;
50543;SDS011;41176;44.032;20.900;2023-01-20T10:27:53;7.32;;;5.13;;
50543;SDS011;41176;44.032;20.900;2023-01-20T10:30:22;4.38;;;3.83;;
50543;SDS011;41176;44.032;20.900;2023-01-20T10:32:53;9.13;;;6.47;;
50543;SDS011;41176;44.032;20.900;2023-01-20T10:35:27;4.85;;;2.92;;
50543;SDS011;41176;44.032;20.900;2023-01-20T10:37:57;4.72;;;3.92;;
50543;SDS011;41176;44.032;20.900;2023-01-20T10:43:19;3.35;;;3.05;;
50543;SDS011;41176;44.032;20.900;2023-01-20T10:48:46;10.20;;;6.28;;
50543;SDS011;41176;44.032;20.900;2023-01-20T10:51:32;16.33;;;8.55;;
50543;SDS011;41176;44.032;20.900;2023-01-20T10:56:57;9.57;;;6.20;;
50543;SDS011;41176;44.032;20.900;2023-01-20T10:59:36;10.48;;;6.78;;
50543;SDS011;41176;44.032;20.900;2023-01-20T11:02:16;11.45;;;8.05;;
50543;SDS011;41176;44.032;20.900;2023-01-20T11:04:59;20.20;;;15.02;;
50543;SDS011;41176;44.032;20.900;2023-01-20T11:07:28;10.32;;;9.32;;
50543;SDS011;41176;44.032;20.900;2023-01-20T11:09:56;10.80;;;9.57;;
50543;SDS011;41176;44.032;20.900;2023-01-20T11:12:37;10.35;;;8.52;;
50543;SDS011;41176;44.032;20.900;2023-01-20T11:15:08;11.07;;;9.40;;
50543;SDS011;41176;44.032;20.900;2023-01-20T11:17:43;11.43;;;6.82;;
50543;SDS011;41176;44.032;20.900;2023-01-20T11:20:12;14.82;;;9.23;;
50543;SDS011;41176;44.032;20.900;2023-01-20T11:22:44;12.55;;;10.10;;
50543;SDS011;41176;44.032;20.900;2023-01-20T11:25:25;12.95;;;7.85;;
50543;SDS011;41176;44.032;20.900;2023-01-20T11:27:52;8.60;;;6.25;;
50543;SDS011;41176;44.032;20.900;2023-01-20T11:35:40;14.25;;;8.05;;
50543;SDS011;41176;44.032;20.900;2023-01-20T11:38:39;11.15;;;6.75;;
50543;SDS011;41176;44.032;20.900;2023-01-20T11:41:16;10.48;;;8.98;;
50543;SDS011;41176;44.032;20.900;2023-01-20T11:43:47;7.78;;;5.30;;
50543;SDS011;41176;44.032;20.900;2023-01-20T11:48:43;6.43;;;5.38;;
50543;SDS011;41176;44.032;20.900;2023-01-20T11:53:45;8.02;;;6.10;;
50543;SDS011;41176;44.032;20.900;2023-01-20T11:56:16;7.82;;;6.82;;
50543;SDS011;41176;44.032;20.900;2023-01-20T12:01:24;5.38;;;3.67;;
50543;SDS011;41176;44.032;20.900;2023-01-20T12:06:57;5.95;;;4.93;;
50543;SDS011;41176;44.032;20.900;2023-01-20T12:09:29;7.15;;;5.15;;
50543;SDS011;41176;44.032;20.900;2023-01-20T12:12:00;4.80;;;4.40;;
50543;SDS011;41176;44.032;20.900;2023-01-20T12:14:30;13.95;;;7.18;;
50543;SDS011;41176;44.032;20.900;2023-01-20T12:17:20;4.30;;;3.67;;
50543;SDS011;41176;44.032;20.900;2023-01-20T12:20:03;5.10;;;3.35;;
50543;SDS011;41176;44.032;20.900;2023-01-20T12:25:36;3.95;;;3.20;;
50543;SDS011;41176;44.032;20.900;2023-01-20T12:28:18;4.43;;;4.03;;
50543;SDS011;41176;44.032;20.900;2023-01-20T12:30:52;2.38;;;2.05;;
50543;SDS011;41176;44.032;20.900;2023-01-20T12:33:24;4.95;;;2.88;;
50543;SDS011;41176;44.032;20.900;2023-01-20T13:07:09;4.53;;;3.42;;
50543;SDS011;41176;44.032;20.900;2023-01-20T13:10:32;6.40;;;2.50;;
50543;SDS011;41176;44.032;20.900;2023-01-20T13:15:17;3.67;;;1.58;;
50543;SDS011;41176;44.032;20.900;2023-01-20T13:18:12;2.47;;;2.00;;
50543;SDS011;41176;44.032;20.900;2023-01-20T13:20:55;3.05;;;1.63;;
50543;SDS011;41176;44.032;20.900;2023-01-20T13:23:24;3.30;;;2.67;;
50543;SDS011;41176;44.032;20.900;2023-01-20T13:25:55;1.75;;;1.55;;
50543;SDS011;41176;44.032;20.900;2023-01-20T13:28:24;1.98;;;1.73;;
50543;SDS011;41176;44.032;20.900;2023-01-20T13:30:52;4.30;;;2.22;;
50543;SDS011;41176;44.032;20.900;2023-01-20T13:35:57;4.07;;;2.65;;
50543;SDS011;41176;44.032;20.900;2023-01-20T13:38:25;4.30;;;3.03;;
50543;SDS011;41176;44.032;20.900;2023-01-20T13:40:57;2.95;;;1.73;;
50543;SDS011;41176;44.032;20.900;2023-01-20T13:48:34;2.03;;;1.83;;
50543;SDS011;41176;44.032;20.900;2023-01-20T13:56:32;2.83;;;2.35;;
50543;SDS011;41176;44.032;20.900;2023-01-20T13:58:57;2.20;;;1.40;;
50543;SDS011;41176;44.032;20.900;2023-01-20T14:01:23;3.38;;;2.13;;
50543;SDS011;41176;44.032;20.900;2023-01-20T14:03:59;4.13;;;1.85;;
50543;SDS011;41176;44.032;20.900;2023-01-20T14:06:27;2.88;;;1.70;;
50543;SDS011;41176;44.032;20.900;2023-01-20T14:08:52;4.95;;;2.75;;
50543;SDS011;41176;44.032;20.900;2023-01-20T14:11:22;2.78;;;2.25;;
50543;SDS011;41176;44.032;20.900;2023-01-20T14:13:55;3.60;;;2.45;;
50543;SDS011;41176;44.032;20.900;2023-01-20T14:16:29;3.58;;;2.67;;
50543;SDS011;41176;44.032;20.900;2023-01-20T14:21:43;3.35;;;2.10;;
50543;SDS011;41176;44.032;20.900;2023-01-20T14:24:28;2.67;;;2.35;;
50543;SDS011;41176;44.032;20.900;2023-01-20T14:29:45;2.60;;;1.90;;
50543;SDS011;41176;44.032;20.900;2023-01-20T14:32:19;3.42;;;1.98;;
50543;SDS011;41176;44.032;20.900;2023-01-20T14:34:52;2.85;;;2.45;;
50543;SDS011;41176;44.032;20.900;2023-01-20T14:39:59;3.72;;;2.05;;
50543;SDS011;41176;44.032;20.900;2023-01-20T14:42:29;2.55;;;2.30;;
50543;SDS011;41176;44.032;20.900;2023-01-20T14:44:55;1.95;;;1.75;;
50543;SDS011;41176;44.032;20.900;2023-01-20T14:47:22;2.53;;;1.92;;
50543;SDS011;41176;44.032;20.900;2023-01-20T14:49:50;3.17;;;1.73;;
50543;SDS011;41176;44.032;20.900;2023-01-20T14:52:21;1.23;;;1.13;;
50543;SDS011;41176;44.032;20.900;2023-01-20T14:54:51;5.97;;;4.10;;
50543;SDS011;41176;44.032;20.900;2023-01-20T15:00:02;3.45;;;2.80;;
50543;SDS011;41176;44.032;20.900;2023-01-20T15:02:36;3.58;;;2.80;;
50543;SDS011;41176;44.032;20.900;2023-01-20T15:07:46;5.72;;;4.78;;
50543;SDS011;41176;44.032;20.900;2023-01-20T15:10:16;7.97;;;4.85;;
50543;SDS011;41176;44.032;20.900;2023-01-20T15:15:16;6.97;;;3.67;;
50543;SDS011;41176;44.032;20.900;2023-01-20T15:20:33;10.65;;;7.05;;
50543;SDS011;41176;44.032;20.900;2023-01-20T15:23:01;3.33;;;2.25;;
50543;SDS011;41176;44.032;20.900;2023-01-20T15:25:27;8.70;;;4.10;;
50543;SDS011;41176;44.032;20.900;2023-01-20T15:27:54;3.03;;;2.75;;
50543;SDS011;41176;44.032;20.900;2023-01-20T15:30:21;6.50;;;4.78;;
50543;SDS011;41176;44.032;20.900;2023-01-20T15:32:51;2.45;;;2.25;;
50543;SDS011;41176;44.032;20.900;2023-01-20T15:35:19;10.07;;;6.13;;
50543;SDS011;41176;44.032;20.900;2023-01-20T15:37:52;8.38;;;5.30;;
50543;SDS011;41176;44.032;20.900;2023-01-20T15:40:22;3.92;;;3.03;;
50543;SDS011;41176;44.032;20.900;2023-01-20T15:42:49;2.67;;;2.42;;
50543;SDS011;41176;44.032;20.900;2023-01-20T15:45:16;4.90;;;3.25;;
50543;SDS011;41176;44.032;20.900;2023-01-20T15:47:43;3.28;;;2.03;;
50543;SDS011;41176;44.032;20.900;2023-01-20T15:50:21;7.47;;;2.30;;
50543;SDS011;41176;44.032;20.900;2023-01-20T15:52:48;2.95;;;2.53;;
50543;SDS011;41176;44.032;20.900;2023-01-20T15:55:14;4.75;;;3.40;;
50543;SDS011;41176;44.032;20.900;2023-01-20T15:57:42;1.58;;;1.40;;
50543;SDS011;41176;44.032;20.900;2023-01-20T16:00:19;3.67;;;2.30;;
50543;SDS011;41176;44.032;20.900;2023-01-20T16:02:46;1.75;;;1.27;;
50543;SDS011;41176;44.032;20.900;2023-01-20T16:05:12;4.35;;;2.55;;
50543;SDS011;41176;44.032;20.900;2023-01-20T16:07:38;2.70;;;1.90;;
50543;SDS011;41176;44.032;20.900;2023-01-20T16:10:05;15.32;;;3.90;;
50543;SDS011;41176;44.032;20.900;2023-01-20T16:12:31;4.43;;;3.35;;
50543;SDS011;41176;44.032;20.900;2023-01-20T16:14:56;3.42;;;2.15;;
50543;SDS011;41176;44.032;20.900;2023-01-20T16:17:22;3.00;;;1.98;;
50543;SDS011;41176;44.032;20.900;2023-01-20T16:19:52;2.38;;;1.85;;
50543;SDS011;41176;44.032;20.900;2023-01-20T16:22:18;6.63;;;2.22;;
50543;SDS011;41176;44.032;20.900;2023-01-20T16:24:43;1.98;;;1.77;;
50543;SDS011;41176;44.032;20.900;2023-01-20T16:27:13;1.58;;;1.40;;
50543;SDS011;41176;44.032;20.900;2023-01-20T16:30:00;3.30;;;1.38;;
50543;SDS011;41176;44.032;20.900;2023-01-20T16:32:26;5.13;;;3.63;;
50543;SDS011;41176;44.032;20.900;2023-01-20T16:34:52;2.53;;;2.33;;
50543;SDS011;41176;44.032;20.900;2023-01-20T16:37:19;2.15;;;1.90;;
50543;SDS011;41176;44.032;20.900;2023-01-20T16:39:44;9.13;;;2.85;;
50543;SDS011;41176;44.032;20.900;2023-01-20T16:42:11;3.10;;;2.60;;
50543;SDS011;41176;44.032;20.900;2023-01-20T16:44:39;3.35;;;2.70;;
50543;SDS011;41176;44.032;20.900;2023-01-20T16:47:04;5.93;;;4.63;;
50543;SDS011;41176;44.032;20.900;2023-01-20T16:49:32;2.72;;;1.88;;
50543;SDS011;41176;44.032;20.900;2023-01-20T16:52:00;1.65;;;1.55;;
50543;SDS011;41176;44.032;20.900;2023-01-20T16:54:26;5.68;;;3.47;;
50543;SDS011;41176;44.032;20.900;2023-01-20T16:56:52;2.40;;;1.73;;
50543;SDS011;41176;44.032;20.900;2023-01-20T16:59:19;2.67;;;2.40;;
50543;SDS011;41176;44.032;20.900;2023-01-20T17:01:50;3.75;;;2.42;;
50543;SDS011;41176;44.032;20.900;2023-01-20T17:04:16;6.45;;;2.90;;
50543;SDS011;41176;44.032;20.900;2023-01-20T17:06:42;2.75;;;2.53;;
50543;SDS011;41176;44.032;20.900;2023-01-20T17:09:08;4.32;;;1.55;;
50543;SDS011;41176;44.032;20.900;2023-01-20T17:11:35;2.50;;;1.77;;
50543;SDS011;41176;44.032;20.900;2023-01-20T17:14:04;7.30;;;3.75;;
50543;SDS011;41176;44.032;20.900;2023-01-20T17:16:32;10.40;;;3.33;;
50543;SDS011;41176;44.032;20.900;2023-01-20T17:18:58;2.92;;;2.33;;
50543;SDS011;41176;44.032;20.900;2023-01-20T17:21:26;3.28;;;2.78;;
50543;SDS011;41176;44.032;20.900;2023-01-20T17:23:58;3.80;;;3.20;;
50543;SDS011;41176;44.032;20.900;2023-01-20T17:26:26;6.20;;;4.03;;
50543;SDS011;41176;44.032;20.900;2023-01-20T17:28:53;5.60;;;4.93;;
50543;SDS011;41176;44.032;20.900;2023-01-20T17:31:22;4.93;;;3.22;;